createdAt,value
2018-11-21T00:00:29.944Z,990.24
2018-11-21T00:01:29.920Z,990.21
2018-11-21T00:02:29.937Z,990.25
2018-11-21T00:03:29.919Z,990.23
2018-11-21T00:04:29.939Z,990.23
2018-11-21T00:05:29.888Z,990.28
2018-11-21T00:06:29.895Z,990.28
2018-11-21T00:07:29.854Z,990.35
2018-11-21T00:08:29.862Z,990.34
2018-11-21T00:09:29.881Z,990.33
2018-11-21T00:10:29.942Z,990.37
2018-11-21T00:11:29.808Z,990.38
2018-11-21T00:12:29.817Z,990.42
2018-11-21T00:13:29.789Z,990.45
2018-11-21T00:14:29.773Z,990.50
2018-11-21T00:15:29.769Z,990.56
2018-11-21T00:16:29.816Z,990.58
2018-11-21T00:17:29.737Z,990.64
2018-11-21T00:18:29.740Z,990.67
2018-11-21T00:19:29.726Z,990.68
2018-11-21T00:20:29.736Z,990.70
2018-11-21T00:21:29.694Z,990.67
2018-11-21T00:22:29.763Z,990.68
2018-11-21T00:23:29.699Z,990.73
2018-11-21T00:24:29.675Z,990.68
2018-11-21T00:25:29.651Z,990.64
2018-11-21T00:26:29.668Z,990.60
2018-11-21T00:27:29.647Z,990.54
2018-11-21T00:28:29.682Z,990.42
2018-11-21T00:29:29.626Z,990.34
2018-11-21T00:30:29.662Z,990.40
2018-11-21T00:31:29.631Z,990.30
2018-11-21T00:32:29.605Z,990.28
2018-11-21T00:33:29.575Z,990.27
2018-11-21T00:34:29.604Z,990.20
2018-11-21T00:35:29.585Z,990.25
2018-11-21T00:36:29.559Z,990.29
2018-11-21T00:37:29.526Z,990.30
2018-11-21T00:38:29.536Z,990.35
2018-11-21T00:39:29.506Z,990.44
2018-11-21T00:40:29.532Z,990.40
2018-11-21T00:41:29.487Z,990.45
2018-11-21T00:42:29.477Z,990.44
2018-11-21T00:43:29.471Z,990.53
2018-11-21T00:44:29.459Z,990.50
2018-11-21T00:45:29.449Z,990.53
2018-11-21T00:46:29.498Z,990.56
2018-11-21T00:47:29.443Z,990.53
2018-11-21T00:48:29.443Z,990.55
2018-11-21T00:49:29.398Z,990.55
2018-11-21T00:50:29.412Z,990.58
2018-11-21T00:51:29.433Z,990.59
2018-11-21T00:52:29.417Z,990.56
2018-11-21T00:53:29.370Z,990.56
2018-11-21T00:54:29.368Z,990.56
2018-11-21T00:55:29.340Z,990.52
2018-11-21T00:56:29.360Z,990.58
2018-11-21T00:57:29.329Z,990.67
2018-11-21T00:58:29.366Z,990.70
2018-11-21T00:59:29.299Z,990.79
2018-11-21T01:00:29.292Z,990.84
2018-11-21T01:01:29.274Z,990.89
2018-11-21T01:02:29.265Z,990.93
2018-11-21T01:03:29.282Z,990.96
2018-11-21T01:04:29.289Z,991.01
2018-11-21T01:05:29.240Z,990.97
2018-11-21T01:06:29.243Z,990.96
2018-11-21T01:07:29.226Z,991.04
2018-11-21T01:08:29.200Z,991.11
2018-11-21T01:09:29.223Z,991.11
2018-11-21T01:10:29.216Z,991.14
2018-11-21T01:11:29.165Z,991.12
2018-11-21T01:12:29.152Z,991.10
2018-11-21T01:13:29.162Z,991.10
2018-11-21T01:14:29.140Z,991.12
2018-11-21T01:15:29.171Z,991.07
2018-11-21T01:16:29.162Z,991.14
2018-11-21T01:17:29.124Z,991.11
2018-11-21T01:18:29.094Z,991.11
2018-11-21T01:19:29.074Z,991.08
2018-11-21T01:20:29.078Z,991.10
2018-11-21T01:21:29.070Z,991.15
2018-11-21T01:22:29.101Z,991.10
2018-11-21T01:23:29.038Z,991.10
2018-11-21T01:24:29.031Z,991.09
2018-11-21T01:25:29.026Z,991.09
2018-11-21T01:26:29.008Z,991.17
2018-11-21T01:27:28.999Z,991.18
2018-11-21T01:28:29.064Z,991.17
2018-11-21T01:29:28.975Z,991.14
2018-11-21T01:30:28.980Z,991.15
2018-11-21T01:31:28.980Z,991.18
2018-11-21T01:32:28.945Z,991.18
2018-11-21T01:33:28.948Z,991.15
2018-11-21T01:34:28.965Z,991.22
2018-11-21T01:35:28.920Z,991.29
2018-11-21T01:36:28.909Z,991.33
2018-11-21T01:37:28.901Z,991.34
2018-11-21T01:38:28.881Z,991.40
2018-11-21T01:39:28.899Z,991.41
2018-11-21T01:40:28.897Z,991.36
2018-11-21T01:41:28.848Z,991.36
2018-11-21T01:42:28.856Z,991.30
2018-11-21T01:43:28.824Z,991.32
2018-11-21T01:44:28.810Z,991.34
2018-11-21T01:45:28.798Z,991.36
2018-11-21T01:46:28.867Z,991.40
2018-11-21T01:47:28.779Z,991.37
2018-11-21T01:48:28.776Z,991.41
2018-11-21T01:49:28.794Z,991.47
2018-11-21T01:50:28.753Z,991.45
2018-11-21T01:51:28.755Z,991.41
2018-11-21T01:52:28.778Z,991.51
2018-11-21T01:53:28.715Z,991.46
2018-11-21T01:54:28.719Z,991.45
2018-11-21T01:55:28.700Z,991.40
2018-11-21T01:56:28.703Z,991.48
2018-11-21T01:57:28.736Z,991.52
2018-11-21T01:58:28.712Z,991.53
2018-11-21T01:59:28.651Z,991.56
2018-11-21T02:00:28.680Z,991.60
2018-11-21T02:01:28.631Z,991.47
2018-11-21T02:02:28.632Z,991.61
2018-11-21T02:03:28.619Z,991.56
2018-11-21T02:04:28.643Z,991.53
2018-11-21T02:05:28.603Z,991.56
2018-11-21T02:06:28.581Z,991.50
2018-11-21T02:07:28.602Z,991.52
2018-11-21T02:08:28.561Z,991.43
2018-11-21T02:09:28.549Z,991.44
2018-11-21T02:10:28.586Z,991.45
2018-11-21T02:11:28.539Z,991.38
2018-11-21T02:12:28.523Z,991.39
2018-11-21T02:13:28.529Z,991.43
2018-11-21T02:14:28.493Z,991.45
2018-11-21T02:15:28.494Z,991.47
2018-11-21T02:16:28.493Z,991.45
2018-11-21T02:17:28.458Z,991.45
2018-11-21T02:18:28.449Z,991.45
2018-11-21T02:19:28.439Z,991.51
2018-11-21T02:20:28.456Z,991.50
2018-11-21T02:21:28.422Z,991.50
2018-11-21T02:22:28.488Z,991.58
2018-11-21T02:23:28.402Z,991.54
2018-11-21T02:24:28.420Z,991.54
2018-11-21T02:25:28.384Z,991.57
2018-11-21T02:26:28.372Z,991.60
2018-11-21T02:27:28.358Z,991.53
2018-11-21T02:28:28.396Z,991.54
2018-11-21T02:29:28.348Z,991.63
2018-11-21T02:30:28.320Z,991.75
2018-11-21T02:31:28.333Z,991.77
2018-11-21T02:32:28.311Z,991.73
2018-11-21T02:33:28.303Z,991.76
2018-11-21T02:34:28.328Z,991.75
2018-11-21T02:35:28.270Z,991.74
2018-11-21T02:36:28.269Z,991.76
2018-11-21T02:37:28.247Z,991.74
2018-11-21T02:38:28.261Z,991.77
2018-11-21T02:39:28.238Z,991.72
2018-11-21T02:40:28.280Z,991.70
2018-11-21T02:41:28.228Z,991.72
2018-11-21T02:42:28.208Z,991.69
2018-11-21T02:43:28.198Z,991.71
2018-11-21T02:44:28.182Z,991.66
2018-11-21T02:45:28.197Z,991.69
2018-11-21T02:46:28.213Z,991.69
2018-11-21T02:47:28.148Z,991.68
2018-11-21T02:48:28.151Z,991.76
2018-11-21T02:49:28.125Z,991.74
2018-11-21T02:50:28.106Z,991.74
2018-11-21T02:51:28.116Z,991.74
2018-11-21T02:52:28.121Z,991.77
2018-11-21T02:53:28.077Z,991.77
2018-11-21T02:54:28.100Z,991.79
2018-11-21T02:55:28.063Z,991.81
2018-11-21T02:56:28.047Z,991.77
2018-11-21T02:57:28.052Z,991.84
2018-11-21T02:58:28.072Z,991.86
2018-11-21T02:59:28.016Z,991.86
2018-11-21T03:00:28.015Z,991.94
2018-11-21T03:01:28.039Z,991.94
2018-11-21T03:02:27.983Z,991.92
2018-11-21T03:03:27.977Z,991.90
2018-11-21T03:04:27.999Z,991.87
2018-11-21T03:05:27.953Z,991.90
2018-11-21T03:06:27.970Z,991.86
2018-11-21T03:07:27.945Z,991.86
2018-11-21T03:08:27.923Z,991.88
2018-11-21T03:09:27.902Z,991.97
2018-11-21T03:10:27.948Z,991.97
2018-11-21T03:11:27.890Z,991.98
2018-11-21T03:12:27.886Z,991.98
2018-11-21T03:13:28.602Z,992.06
2018-11-21T03:14:27.852Z,992.14
2018-11-21T03:15:27.857Z,992.15
2018-11-21T03:16:28.044Z,992.18
2018-11-21T03:17:27.819Z,992.19
2018-11-21T03:18:27.829Z,992.17
2018-11-21T03:19:27.827Z,992.20
2018-11-21T03:20:27.793Z,992.24
2018-11-21T03:21:27.781Z,992.23
2018-11-21T03:22:27.816Z,992.20
2018-11-21T03:23:27.765Z,992.25
2018-11-21T03:24:27.750Z,992.26
2018-11-21T03:25:27.735Z,992.25
2018-11-21T03:26:27.725Z,992.31
2018-11-21T03:27:27.725Z,992.36
2018-11-21T03:28:27.758Z,992.43
2018-11-21T03:29:27.713Z,992.45
2018-11-21T03:30:27.682Z,992.46
2018-11-21T03:31:27.680Z,992.51
2018-11-21T03:32:27.661Z,992.51
2018-11-21T03:33:27.667Z,992.52
2018-11-21T03:34:27.765Z,992.52
2018-11-21T03:35:27.634Z,992.51
2018-11-21T03:36:27.636Z,992.51
2018-11-21T03:37:27.634Z,992.47
2018-11-21T03:38:27.601Z,992.42
2018-11-21T03:39:27.599Z,992.39
2018-11-21T03:40:27.619Z,992.32
2018-11-21T03:41:27.573Z,992.29
2018-11-21T03:42:27.569Z,992.30
2018-11-21T03:43:27.551Z,992.34
2018-11-21T03:44:27.528Z,992.36
2018-11-21T03:45:27.550Z,992.42
2018-11-21T03:46:27.557Z,992.47
2018-11-21T03:47:27.504Z,992.49
2018-11-21T03:48:27.490Z,992.45
2018-11-21T03:49:27.495Z,992.43
2018-11-21T03:50:27.477Z,992.39
2018-11-21T03:51:27.470Z,992.35
2018-11-21T03:52:27.509Z,992.39
2018-11-21T03:53:27.471Z,992.35
2018-11-21T03:54:27.470Z,992.42
2018-11-21T03:55:27.424Z,992.47
2018-11-21T03:56:27.414Z,992.50
2018-11-21T03:57:27.422Z,992.54
2018-11-21T03:58:27.453Z,992.61
2018-11-21T03:59:27.392Z,992.70
2018-11-21T04:00:27.386Z,992.72
2018-11-21T04:01:27.352Z,992.66
2018-11-21T04:02:27.352Z,992.69
2018-11-21T04:03:27.354Z,992.67
2018-11-21T04:04:27.383Z,992.74
2018-11-21T04:05:27.308Z,992.74
2018-11-21T04:06:27.304Z,992.68
2018-11-21T04:07:27.292Z,992.72
2018-11-21T04:08:27.276Z,992.68
2018-11-21T04:09:27.264Z,992.71
2018-11-21T04:10:27.321Z,992.66
2018-11-21T04:11:27.253Z,992.66
2018-11-21T04:12:27.274Z,992.65
2018-11-21T04:13:27.229Z,992.69
2018-11-21T04:14:27.214Z,992.69
2018-11-21T04:15:27.205Z,992.75
2018-11-21T04:16:27.229Z,992.76
2018-11-21T04:17:27.185Z,992.79
2018-11-21T04:18:27.248Z,992.73
2018-11-21T04:19:27.166Z,992.76
2018-11-21T04:20:27.168Z,992.80
2018-11-21T04:21:27.179Z,992.78
2018-11-21T04:22:27.216Z,992.81
2018-11-21T04:23:27.148Z,992.82
2018-11-21T04:24:27.130Z,992.80
2018-11-21T04:25:27.095Z,992.82
2018-11-21T04:26:27.112Z,992.79
2018-11-21T04:27:27.089Z,992.83
2018-11-21T04:28:27.119Z,992.88
2018-11-21T04:29:27.074Z,992.89
2018-11-21T04:30:27.076Z,992.88
2018-11-21T04:31:27.033Z,992.93
2018-11-21T04:32:27.031Z,992.94
2018-11-21T04:33:27.029Z,992.90
2018-11-21T04:34:27.094Z,992.94
2018-11-21T04:35:27.005Z,992.99
2018-11-21T04:36:27.017Z,992.96
2018-11-21T04:37:27.008Z,992.93
2018-11-21T04:38:26.975Z,992.92
2018-11-21T04:39:26.962Z,992.99
2018-11-21T04:40:26.996Z,992.96
2018-11-21T04:41:27.057Z,992.99
2018-11-21T04:42:26.922Z,993.11
2018-11-21T04:43:26.915Z,993.12
2018-11-21T04:44:26.911Z,993.16
2018-11-21T04:45:26.913Z,993.19
2018-11-21T04:46:26.998Z,993.21
2018-11-21T04:47:26.870Z,993.19
2018-11-21T04:48:26.871Z,993.11
2018-11-21T04:49:26.841Z,993.06
2018-11-21T04:50:26.866Z,993.04
2018-11-21T04:51:26.826Z,993.01
2018-11-21T04:52:26.844Z,993.07
2018-11-21T04:53:28.049Z,993.06
2018-11-21T04:54:26.789Z,993.05
2018-11-21T04:55:26.796Z,993.05
2018-11-21T04:56:26.765Z,993.08
2018-11-21T04:57:26.789Z,993.06
2018-11-21T04:58:26.812Z,993.04
2018-11-21T04:59:26.752Z,993.07
2018-11-21T05:00:26.729Z,993.02
2018-11-21T05:01:26.716Z,993.06
2018-11-21T05:02:26.704Z,993.09
2018-11-21T05:03:26.725Z,993.07
2018-11-21T05:04:26.717Z,993.13
2018-11-21T05:05:26.674Z,993.12
2018-11-21T05:06:26.674Z,993.12
2018-11-21T05:07:26.674Z,993.11
2018-11-21T05:08:26.649Z,993.10
2018-11-21T05:09:26.637Z,993.13
2018-11-21T05:10:26.668Z,993.08
2018-11-21T05:11:26.629Z,993.12
2018-11-21T05:12:26.613Z,993.14
2018-11-21T05:13:26.582Z,993.11
2018-11-21T05:14:26.578Z,993.10
2018-11-21T05:15:26.579Z,993.10
2018-11-21T05:16:26.595Z,993.08
2018-11-21T05:17:26.544Z,993.12
2018-11-21T05:18:26.538Z,993.13
2018-11-21T05:19:26.517Z,993.12
2018-11-21T05:20:26.517Z,993.15
2018-11-21T05:21:26.505Z,993.15
2018-11-21T05:22:26.530Z,993.13
2018-11-21T05:23:26.480Z,993.22
2018-11-21T05:24:26.473Z,993.19
2018-11-21T05:25:26.458Z,993.24
2018-11-21T05:26:26.490Z,993.26
2018-11-21T05:27:26.443Z,993.27
2018-11-21T05:28:26.480Z,993.33
2018-11-21T05:29:26.438Z,993.35
2018-11-21T05:30:26.421Z,993.27
2018-11-21T05:31:26.408Z,993.31
2018-11-21T05:32:26.399Z,993.24
2018-11-21T05:33:26.415Z,993.22
2018-11-21T05:34:26.409Z,993.32
2018-11-21T05:35:26.351Z,993.31
2018-11-21T05:36:26.337Z,993.30
2018-11-21T05:37:26.535Z,993.33
2018-11-21T05:38:26.317Z,993.39
2018-11-21T05:39:26.306Z,993.41
2018-11-21T05:40:26.352Z,993.42
2018-11-21T05:41:26.290Z,993.43
2018-11-21T05:42:26.283Z,993.41
2018-11-21T05:43:26.270Z,993.45
2018-11-21T05:44:31.300Z,993.49
2018-11-21T05:45:26.239Z,993.55
2018-11-21T05:46:26.299Z,993.60
2018-11-21T05:47:26.252Z,993.65
2018-11-21T05:48:26.220Z,993.63
2018-11-21T05:49:26.206Z,993.68
2018-11-21T05:50:26.233Z,993.67
2018-11-21T05:51:26.186Z,993.73
2018-11-21T05:52:26.219Z,993.74
2018-11-21T05:53:26.177Z,993.67
2018-11-21T05:54:26.151Z,993.71
2018-11-21T05:55:26.143Z,993.70
2018-11-21T05:56:26.129Z,993.71
2018-11-21T05:57:26.126Z,993.79
2018-11-21T05:58:26.147Z,993.74
2018-11-21T05:59:26.092Z,993.77
2018-11-21T06:00:26.100Z,993.78
2018-11-21T06:01:26.100Z,993.73
2018-11-21T06:02:26.070Z,993.70
2018-11-21T06:03:26.067Z,993.60
2018-11-21T06:04:26.074Z,993.63
2018-11-21T06:05:26.033Z,993.66
2018-11-21T06:06:26.025Z,993.66
2018-11-21T06:07:26.016Z,993.69
2018-11-21T06:08:26.005Z,993.72
2018-11-21T06:09:26.654Z,993.78
2018-11-21T06:10:26.028Z,993.77
2018-11-21T06:11:25.973Z,993.70
2018-11-21T06:12:25.965Z,993.79
2018-11-21T06:13:25.969Z,993.76
2018-11-21T06:14:25.944Z,993.82
2018-11-21T06:15:25.926Z,993.80
2018-11-21T06:16:25.964Z,993.83
2018-11-21T06:17:25.909Z,993.86
2018-11-21T06:18:25.904Z,993.92
2018-11-21T06:19:25.880Z,993.87
2018-11-21T06:20:25.881Z,993.90
2018-11-21T06:21:25.866Z,994.00
2018-11-21T06:22:25.904Z,993.97
2018-11-21T06:23:25.842Z,993.97
2018-11-21T06:24:25.830Z,994.01
2018-11-21T06:25:25.850Z,993.97
2018-11-21T06:26:25.811Z,994.00
2018-11-21T06:27:25.793Z,993.98
2018-11-21T06:28:25.848Z,993.99
2018-11-21T06:29:25.779Z,993.96
2018-11-21T06:30:25.788Z,994.02
2018-11-21T06:31:25.757Z,994.04
2018-11-21T06:32:25.751Z,994.03
2018-11-21T06:33:25.754Z,994.06
2018-11-21T06:34:29.097Z,994.02
2018-11-21T06:35:25.713Z,994.05
2018-11-21T06:36:25.704Z,994.11
2018-11-21T06:37:25.690Z,994.10
2018-11-21T06:38:25.685Z,994.14
2018-11-21T06:39:25.700Z,994.14
2018-11-21T06:40:25.708Z,994.15
2018-11-21T06:41:25.660Z,994.16
2018-11-21T06:42:25.648Z,994.22
2018-11-21T06:43:25.645Z,994.27
2018-11-21T06:44:25.619Z,994.30
2018-11-21T06:45:25.613Z,994.32
2018-11-21T06:46:25.649Z,994.36
2018-11-21T06:47:25.586Z,994.37
2018-11-21T06:48:25.585Z,994.40
2018-11-21T06:49:25.604Z,994.46
2018-11-21T06:50:25.574Z,994.40
2018-11-21T06:51:25.544Z,994.50
2018-11-21T06:52:25.577Z,994.52
2018-11-21T06:53:25.540Z,994.57
2018-11-21T06:54:25.507Z,994.57
2018-11-21T06:55:25.497Z,994.54
2018-11-21T06:56:25.495Z,994.42
2018-11-21T06:57:25.528Z,994.46
2018-11-21T06:58:25.721Z,994.44
2018-11-21T06:59:25.487Z,994.37
2018-11-21T07:00:25.465Z,994.51
2018-11-21T07:01:25.453Z,994.48
2018-11-21T07:02:25.430Z,994.49
2018-11-21T07:03:25.415Z,994.51
2018-11-21T07:04:25.445Z,994.45
2018-11-21T07:05:25.390Z,994.47
2018-11-21T07:06:25.396Z,994.43
2018-11-21T07:07:25.368Z,994.43
2018-11-21T07:08:25.357Z,994.41
2018-11-21T07:09:25.350Z,994.38
2018-11-21T07:10:25.619Z,994.39
2018-11-21T07:11:25.335Z,994.42
2018-11-21T07:12:25.321Z,994.49
2018-11-21T07:13:25.309Z,994.49
2018-11-21T07:14:25.303Z,994.42
2018-11-21T07:15:25.293Z,994.42
2018-11-21T07:16:25.319Z,994.40
2018-11-21T07:17:25.264Z,994.47
2018-11-21T07:18:25.265Z,994.51
2018-11-21T07:19:25.293Z,994.55
2018-11-21T07:20:25.399Z,994.56
2018-11-21T07:21:25.229Z,994.60
2018-11-21T07:22:25.253Z,994.61
2018-11-21T07:23:25.201Z,994.61
2018-11-21T07:24:26.390Z,994.58
2018-11-21T07:25:25.182Z,994.62
2018-11-21T07:26:25.176Z,994.60
2018-11-21T07:27:25.175Z,994.59
2018-11-21T07:28:25.226Z,994.62
2018-11-21T07:29:25.141Z,994.67
2018-11-21T07:30:25.179Z,994.67
2018-11-21T07:31:25.132Z,994.68
2018-11-21T07:32:25.103Z,994.69
2018-11-21T07:33:25.100Z,994.67
2018-11-21T07:34:25.141Z,994.76
2018-11-21T07:35:25.084Z,994.78
2018-11-21T07:36:25.065Z,994.76
2018-11-21T07:37:25.062Z,994.83
2018-11-21T07:38:25.044Z,994.82
2018-11-21T07:39:25.029Z,994.86
2018-11-21T07:40:25.062Z,994.88
2018-11-21T07:41:25.036Z,994.91
2018-11-21T07:42:25.007Z,994.91
2018-11-21T07:43:25.033Z,994.90
2018-11-21T07:44:24.988Z,994.91
2018-11-21T07:45:24.999Z,994.89
2018-11-21T07:46:25.028Z,994.92
2018-11-21T07:47:26.680Z,994.95
2018-11-21T07:48:24.943Z,994.99
2018-11-21T07:49:24.929Z,995.00
2018-11-21T07:50:24.937Z,994.98
2018-11-21T07:51:24.924Z,995.06
2018-11-21T07:52:24.932Z,995.06
2018-11-21T07:53:24.884Z,995.10
2018-11-21T07:54:24.876Z,995.07
2018-11-21T07:55:24.880Z,995.09
2018-11-21T07:56:24.858Z,995.04
2018-11-21T07:57:24.843Z,995.01
2018-11-21T07:58:24.880Z,995.03
2018-11-21T07:59:24.817Z,995.05
2018-11-21T08:00:24.811Z,995.04
2018-11-21T08:01:24.825Z,995.05
2018-11-21T08:02:24.788Z,995.05
2018-11-21T08:03:24.780Z,995.06
2018-11-21T08:04:24.818Z,995.12
2018-11-21T08:05:24.759Z,995.13
2018-11-21T08:06:24.751Z,995.13
2018-11-21T08:07:24.734Z,995.16
2018-11-21T08:08:24.742Z,995.20
2018-11-21T08:09:24.716Z,995.22
2018-11-21T08:10:24.752Z,995.28
2018-11-21T08:11:24.712Z,995.31
2018-11-21T08:12:24.685Z,995.38
2018-11-21T08:13:24.681Z,995.44
2018-11-21T08:14:24.664Z,995.38
2018-11-21T08:15:24.655Z,995.39
2018-11-21T08:16:24.719Z,995.44
2018-11-21T08:17:24.641Z,995.42
2018-11-21T08:18:24.615Z,995.53
2018-11-21T08:19:24.615Z,995.52
2018-11-21T08:20:24.598Z,995.55
2018-11-21T08:21:25.628Z,995.51
2018-11-21T08:22:26.128Z,995.51
2018-11-21T08:23:24.582Z,995.52
2018-11-21T08:24:24.569Z,995.51
2018-11-21T08:25:24.543Z,995.53
2018-11-21T08:26:24.535Z,995.51
2018-11-21T08:27:24.524Z,995.52
2018-11-21T08:28:24.601Z,995.50
2018-11-21T08:29:24.507Z,995.54
2018-11-21T08:30:24.494Z,995.59
2018-11-21T08:31:24.494Z,995.59
2018-11-21T08:32:24.480Z,995.68
2018-11-21T08:33:24.472Z,995.71
2018-11-21T08:34:24.479Z,995.76
2018-11-21T08:35:24.448Z,995.71
2018-11-21T08:36:24.461Z,995.72
2018-11-21T08:37:24.428Z,995.67
2018-11-21T08:38:24.429Z,995.66
2018-11-21T08:39:24.395Z,995.71
2018-11-21T08:40:24.459Z,995.68
2018-11-21T08:41:24.368Z,995.67
2018-11-21T08:42:24.358Z,995.66
2018-11-21T08:43:24.371Z,995.71
2018-11-21T08:44:24.386Z,995.72
2018-11-21T08:45:24.347Z,995.63
2018-11-21T08:46:24.355Z,995.68
2018-11-21T08:47:24.330Z,995.65
2018-11-21T08:48:24.293Z,995.68
2018-11-21T08:49:24.305Z,995.64
2018-11-21T08:50:24.274Z,995.64
2018-11-21T08:51:24.304Z,995.64
2018-11-21T08:52:24.314Z,995.58
2018-11-21T08:53:24.239Z,995.58
2018-11-21T08:54:24.229Z,995.55
2018-11-21T08:55:24.237Z,995.62
2018-11-21T08:56:24.206Z,995.67
2018-11-21T08:57:24.204Z,995.73
2018-11-21T08:58:24.230Z,995.82
2018-11-21T08:59:24.183Z,995.84
2018-11-21T09:00:24.169Z,995.81
2018-11-21T09:01:24.154Z,995.81
2018-11-21T09:02:24.144Z,995.82
2018-11-21T09:03:24.165Z,995.83
2018-11-21T09:04:24.170Z,995.84
2018-11-21T09:05:24.111Z,995.79
2018-11-21T09:06:24.105Z,995.79
2018-11-21T09:07:24.098Z,995.82
2018-11-21T09:08:24.083Z,995.83
2018-11-21T09:09:24.080Z,995.88
2018-11-21T09:10:24.146Z,995.91
2018-11-21T09:11:24.050Z,995.93
2018-11-21T09:12:24.036Z,995.93
2018-11-21T09:13:24.031Z,995.90
2018-11-21T09:14:24.013Z,995.91
2018-11-21T09:15:24.006Z,995.94
2018-11-21T09:16:24.047Z,995.99
2018-11-21T09:17:23.982Z,996.01
2018-11-21T09:18:23.968Z,995.98
2018-11-21T09:19:23.960Z,996.04
2018-11-21T09:20:23.950Z,996.06
2018-11-21T09:21:23.937Z,996.05
2018-11-21T09:22:24.021Z,996.07
2018-11-21T09:23:23.939Z,996.04
2018-11-21T09:24:23.924Z,996.08
2018-11-21T09:25:23.900Z,995.98
2018-11-21T09:26:23.899Z,996.01
2018-11-21T09:27:23.883Z,996.03
2018-11-21T09:28:23.953Z,996.04
2018-11-21T09:29:24.611Z,996.07
2018-11-21T09:30:23.850Z,996.06
2018-11-21T09:31:23.833Z,996.10
2018-11-21T09:32:23.831Z,996.02
2018-11-21T09:33:23.807Z,996.04
2018-11-21T09:34:23.830Z,996.05
2018-11-21T09:35:23.798Z,996.07
2018-11-21T09:36:23.809Z,996.15
2018-11-21T09:37:23.767Z,996.19
2018-11-21T09:38:23.763Z,996.24
2018-11-21T09:39:23.748Z,996.25
2018-11-21T09:40:23.785Z,996.24
2018-11-21T09:41:23.747Z,996.25
2018-11-21T09:42:23.713Z,996.34
2018-11-21T09:43:23.699Z,996.29
2018-11-21T09:44:23.697Z,996.31
2018-11-21T09:45:23.676Z,996.40
2018-11-21T09:46:23.721Z,996.42
2018-11-21T09:47:24.203Z,996.45
2018-11-21T09:48:23.646Z,996.41
2018-11-21T09:49:23.641Z,996.44
2018-11-21T09:50:23.628Z,996.43
2018-11-21T09:51:23.617Z,996.47
2018-11-21T09:52:23.645Z,996.44
2018-11-21T09:53:23.594Z,996.41
2018-11-21T09:54:23.589Z,996.45
2018-11-21T09:55:23.583Z,996.46
2018-11-21T09:56:23.571Z,996.43
2018-11-21T09:57:23.546Z,996.44
2018-11-21T09:58:23.593Z,996.49
2018-11-21T09:59:23.532Z,996.46
2018-11-21T10:00:23.525Z,996.46
2018-11-21T10:01:23.508Z,996.45
2018-11-21T10:02:23.500Z,996.44
2018-11-21T10:03:23.491Z,996.41
2018-11-21T10:04:23.531Z,996.31
2018-11-21T10:05:23.467Z,996.32
2018-11-21T10:06:23.456Z,996.29
2018-11-21T10:07:23.438Z,996.25
2018-11-21T10:08:23.434Z,996.27
2018-11-21T10:09:23.417Z,996.25
2018-11-21T10:10:23.441Z,996.32
2018-11-21T10:11:23.403Z,996.30
2018-11-21T10:12:23.402Z,996.30
2018-11-21T10:13:23.393Z,996.29
2018-11-21T10:14:23.368Z,996.25
2018-11-21T10:15:23.351Z,996.27
2018-11-21T10:16:23.390Z,996.22
2018-11-21T10:17:23.331Z,996.23
2018-11-21T10:18:23.321Z,996.27
2018-11-21T10:19:23.323Z,996.23
2018-11-21T10:20:23.297Z,996.24
2018-11-21T10:21:23.289Z,996.13
2018-11-21T10:22:23.347Z,996.11
2018-11-21T10:23:23.265Z,996.14
2018-11-21T10:24:23.253Z,996.07
2018-11-21T10:25:23.253Z,996.15
2018-11-21T10:26:23.233Z,996.13
2018-11-21T10:27:23.225Z,996.06
2018-11-21T10:28:23.262Z,996.12
2018-11-21T10:29:23.204Z,996.18
2018-11-21T10:30:23.194Z,996.15
2018-11-21T10:31:23.181Z,996.16
2018-11-21T10:32:23.173Z,996.21
2018-11-21T10:33:23.183Z,996.27
2018-11-21T10:34:23.215Z,996.30
2018-11-21T10:35:23.138Z,996.28
2018-11-21T10:36:23.123Z,996.26
2018-11-21T10:37:23.114Z,996.23
2018-11-21T10:38:23.112Z,996.25
2018-11-21T10:39:23.108Z,996.26
2018-11-21T10:40:23.132Z,996.25
2018-11-21T10:41:23.070Z,996.37
2018-11-21T10:42:23.059Z,996.33
2018-11-21T10:43:26.433Z,996.32
2018-11-21T10:44:23.037Z,996.29
2018-11-21T10:45:23.040Z,996.30
2018-11-21T10:46:23.081Z,996.26
2018-11-21T10:47:23.004Z,996.24
2018-11-21T10:48:22.994Z,996.26
2018-11-21T10:49:22.988Z,996.37
2018-11-21T10:51:22.963Z,996.43
2018-11-21T10:52:23.008Z,996.47
2018-11-21T10:53:22.966Z,996.47
2018-11-21T10:54:22.928Z,996.48
2018-11-21T10:55:22.920Z,996.50
2018-11-21T10:56:22.909Z,996.52
2018-11-21T10:57:22.905Z,996.50
2018-11-21T10:58:22.954Z,996.49
2018-11-21T10:59:22.889Z,996.40
2018-11-21T11:00:22.869Z,996.41
2018-11-21T11:01:22.882Z,996.43
2018-11-21T11:02:22.849Z,996.43
2018-11-21T11:03:22.843Z,996.33
2018-11-21T11:04:22.903Z,996.34
2018-11-21T11:05:22.818Z,996.33
2018-11-21T11:06:22.811Z,996.37
2018-11-21T11:07:22.804Z,996.43
2018-11-21T11:08:22.780Z,996.47
2018-11-21T11:09:22.780Z,996.52
2018-11-21T11:10:22.808Z,996.44
2018-11-21T11:11:22.747Z,996.40
2018-11-21T11:12:22.733Z,996.43
2018-11-21T11:13:22.728Z,996.46
2018-11-21T11:14:22.733Z,996.47
2018-11-21T11:15:22.721Z,996.45
2018-11-21T11:16:22.733Z,996.56
2018-11-21T11:17:22.692Z,996.61
2018-11-21T11:18:22.675Z,996.60
2018-11-21T11:19:22.664Z,996.62
2018-11-21T11:20:22.653Z,996.63
2018-11-21T11:21:22.637Z,996.62
2018-11-21T11:22:22.656Z,996.65
2018-11-21T11:23:22.660Z,996.68
2018-11-21T11:24:22.607Z,996.70
2018-11-21T11:25:22.618Z,996.71
2018-11-21T11:26:22.586Z,996.72
2018-11-21T11:27:22.571Z,996.74
2018-11-21T11:28:22.635Z,996.64
2018-11-21T11:29:22.568Z,996.71
2018-11-21T11:30:22.548Z,996.67
2018-11-21T11:31:22.524Z,996.68
2018-11-21T11:32:22.536Z,996.71
2018-11-21T11:33:22.526Z,996.64
2018-11-21T11:34:22.557Z,996.66
2018-11-21T11:35:22.484Z,996.72
2018-11-21T11:36:22.479Z,996.69
2018-11-21T11:37:22.472Z,996.68
2018-11-21T11:38:22.466Z,996.70
2018-11-21T11:39:22.439Z,996.68
2018-11-21T11:40:22.479Z,996.69
2018-11-21T11:41:22.444Z,996.70
2018-11-21T11:42:22.413Z,996.75
2018-11-21T11:43:22.404Z,996.76
2018-11-21T11:44:22.387Z,996.70
2018-11-21T11:45:22.375Z,996.71
2018-11-21T11:46:22.417Z,996.69
2018-11-21T11:47:22.368Z,996.69
2018-11-21T11:48:22.372Z,996.73
2018-11-21T11:49:22.341Z,996.77
2018-11-21T11:50:22.323Z,996.74
2018-11-21T11:51:22.320Z,996.74
2018-11-21T11:52:22.358Z,996.70
2018-11-21T11:53:22.283Z,996.68
2018-11-21T11:54:22.281Z,996.74
2018-11-21T11:55:22.276Z,996.72
2018-11-21T11:56:22.252Z,996.77
2018-11-21T11:57:22.238Z,996.73
2018-11-21T11:58:22.280Z,996.79
2018-11-21T11:59:22.224Z,996.81
2018-11-21T12:00:22.210Z,996.83
2018-11-21T12:01:22.204Z,996.83
2018-11-21T12:02:22.184Z,996.88
2018-11-21T12:03:22.175Z,996.88
2018-11-21T12:04:22.378Z,996.82
2018-11-21T12:05:22.153Z,996.85
2018-11-21T12:06:22.145Z,996.79
2018-11-21T12:07:22.145Z,996.81
2018-11-21T12:08:22.166Z,996.82
2018-11-21T12:09:22.111Z,996.83
2018-11-21T12:10:22.146Z,996.78
2018-11-21T12:11:22.106Z,996.82
2018-11-21T12:12:22.100Z,996.82
2018-11-21T12:13:22.080Z,996.86
2018-11-21T12:14:22.058Z,996.80
2018-11-21T12:15:22.046Z,996.80
2018-11-21T12:16:22.093Z,996.85
2018-11-21T12:17:22.043Z,996.81
2018-11-21T12:18:22.014Z,996.81
2018-11-21T12:19:22.007Z,996.75
2018-11-21T12:20:22.017Z,996.70
2018-11-21T12:21:21.990Z,996.76
2018-11-21T12:22:22.039Z,996.70
2018-11-21T12:23:21.968Z,996.65
2018-11-21T12:24:21.957Z,996.66
2018-11-21T12:25:21.935Z,996.63
2018-11-21T12:26:21.959Z,996.59
2018-11-21T12:27:21.918Z,996.58
2018-11-21T12:28:21.982Z,996.62
2018-11-21T12:29:21.903Z,996.69